Crystal, Maine
Current Conditions -  °F | °C
As of 12:53 PM on Saturday 22 Nov 2014 (Local Time) from KHUL Reporting Station
Overcast Overcast  
Wind Chill:   Ceiling: 9000
Heat Index: 22°   Visibility: 10mi
Dew Point: 12°   Wind: 14mph
Humidity: 66%   Direction: 190°S
Pressure: 29.94"   Gusts: 23mph
Location:  46.0051°N, 68.2487°W
Report Text: KHUL 221753Z AUTO 19012G20KT 10SM OVC090 M06/M11 A2994 RMK AO2 SLP148 T10561111 11056 21106 56058
Loading
Personal Weather Stations






























Interactive Weather Map New forecast layout! Learn more

10-Day Weather Forecast

Advertisements
Track Severe Weather on mobile